默认 日期 大小 文件数 浏览量 最新下载 xml
3 27磁力链接相关资源由用户搜索指令自动获取,结果来源于网络,本站不存储任何资料,亦不承担任何责任,请于24小时内删除,搜索到3764个磁力,用时71ms。
    ... .27 Build 3 Registered (32bit + 64bit Patch).exe": 56215642, "IDM 6.27 Build 3 ...
创建时间: 2019-01-14 22:07:26 大小:53.9 MB 文件数量:6 热度:8 最近下载:2025-03-28 21:35:02
    {"ReadMe.nfo": 932, "Torrent downloaded from H33t.to.txt": 40, "IDM 7.27 Build 3 Registered (32bit + 64bit Ptch).exe": 11648430, "IDM 7.27 Build 3 Registered (32bit + 64bit Ptch).nfo": 320}
创建时间: 2019-01-15 01:02:19 大小:11.11 MB 文件数量:4 热度:21 最近下载:2025-08-01 20:31:04
    {"Disk1": {"npu": {"upd-2016-05-00-M201604.npu": 11099136, "upd-2016-05-00-M201604.001.npupart": 536870912, "upd-2016-05-00-M201604.002.npupart": 536870912, "upd-2016-05-00-M201604.003.npupart": 536870912, "upd-2016-05-00-M201604.004.npupart": 465097216}, ...
创建时间: 2019-01-15 01:54:39 大小:5.33 GB 文件数量:117 热度:5 最近下载:2025-03-10 07:02:04
    ... ��@FDZone-Forum.txt": 27, "�A��� ...
创建时间: 2019-01-15 02:41:29 大小:48.15 GB 文件数量:78 热度:9 最近下载:2025-01-28 20:44:01
    ... コース3時間SPECIAL ACT.27 元国民 ...
创建时间: 2019-01-15 04:40:21 大小:5.85 GB 文件数量:15 热度:273 最近下载:2025-10-17 00:39:02
    {"DigitalPlayground.Antonia.Sainz.Nikky.Dream.Ski.Bums.Episode.3.03.27.17.mp4": 365972220}
创建时间: 2019-01-15 06:38:47 大小:349.02 MB 文件数量:1 热度:16 最近下载:2025-08-12 10:49:01
    {"Torrent downloaded from extremlymtorrents.me.txt": 80, "IDM 6.27 Build 3 Registered (32bit + 64bit Patch) [CrackingPatch.exe": 10280710}
创建时间: 2019-01-15 09:56:41 大小:9.8 MB 文件数量:2 热度:7 最近下载:2025-03-24 12:43:02
    {"Запись на USB & DVD": {"Инструкция.url": 272, "Windows7-USB-DVD-Tool.exe": 2917913}, "Windows 7 Ultimate x86(x32) Optimized Speed by Yagd v.3.4 [27.04.2013].iso": 2887747584}
创建时间: 2019-01-15 13:00:30 大小:2.69 GB 文件数量:3 热度:7 最近下载:2025-07-10 18:08:02
    ... un'opera buona.avi": 308101120, "27 - A Passeggio Con Il Nonno ...
创建时间: 2019-01-15 13:17:19 大小:2.58 GB 文件数量:9 热度:9 最近下载:2025-01-27 21:02:02
    {"Readme.url": 892, "www.FENOPY.se.jpg": 118728, "Torrent downloaded from AhaShare.com.txt": 40, "Euro Truck Simulator 3 v1.27.1.7s (Inclu ALL DLC).exe": 28648402}
创建时间: 2019-01-15 14:36:28 大小:27.44 MB 文件数量:4 热度:3 最近下载:2022-11-15 19:49:21
    {"poster.jpg": 40187, "screens.jpg": 227469, "RARBG.com.txt": 33, "kha.16.08.27.peyton.robbie.solo.3.mp4": 442247492}
创建时间: 2019-01-15 15:25:51 大小:422.02 MB 文件数量:4 热度:9 最近下载:2025-09-11 01:15:03
    ... , "My Mom's Dark Secret 3.mp4": 3778045791, "最新成 ...
创建时间: 2019-01-15 22:04:25 大小:3.61 GB 文件数量:30 热度:13 最近下载:2024-12-07 14:33:03
    ... .avi": 523532288, "Gracie.BULLYPROOF.Disc.3.Part.1.DVDRip.XviD-UPiNSMOKE ... .avi": 78092288, "Gracie.BULLYPROOF.Disc.3.Part.2.DVDRip.XviD-UPiNSMOKE ...
创建时间: 2019-01-16 03:32:51 大小:6.6 GB 文件数量:17 热度:7 最近下载:2024-12-07 01:01:35
    {"Readme!.txt": 1100, "Torrent downloaded from Digtorrent.org.txt": 96, "Internet Download Manager (IDM) 6.27 Build 3 + Patch.exe": 5396390}
创建时间: 2019-01-16 04:38:33 大小:5.15 MB 文件数量:3 热度:6 最近下载:2025-03-03 14:24:03
    {"poster.jpg": 33040, "screens.jpg": 0, "RARBG.com.txt": 33, "tle.16.11.27.emily.j.scarecrow.3.2.mp4": 532664408}
创建时间: 2019-01-16 05:03:37 大小:508.02 MB 文件数量:4 热度:7 最近下载:2025-03-30 06:20:02
    ... "Links_to_ALL_Torrents.html": 87931, "2013-07-27 San Francisco CA": {"1-04 ... music.mp3": 4146006, "2013.07.27 - San Francisco Full.m4b": ... ": 298948826, "2of3 2013-07-27 San Francisco CA.mp4": 287329047 ... "Info 2013-07-27 Video+mp3 LIVE 3-hr Broadcast.txt": 6135 ...
创建时间: 2019-01-16 05:08:13 大小:1.2 GB 文件数量:28 热度:6 最近下载:2025-02-09 20:57:04
    {"speedplus.us.url": 227, "[email protected]": 0, "[email protected]": 40, "passwing_speedplus.us.txt": 49, "passwing@�˱K�R�H.txt": 0, "passwing__by_FDZone.ORG.txt": 22, "passwing__by_FDZone.ORG.url": 227, "n0418_emiri_nagayama_tg_n.wmv": ...
创建时间: 2019-01-16 10:47:21 大小:2.84 GB 文件数量:13 热度:8 最近下载:2025-06-30 05:04:03
    {"RARBG.com.txt": 34, "kha.15.04.27.lacey.channing.solo.3.mp4": 360126303, "kha.15.04.27.lacey.channing.solo.3.nfo": 5191}
创建时间: 2019-01-16 18:31:42 大小:343.45 MB 文件数量:3 热度:8 最近下载:2025-06-06 01:59:03
    {"crack": {"run_6743f.exe": 116410}, "ReadMe.pdf": 11092, "WWW.SUMOTORRENT.SZ.jpg": 102416, "Torrent downloaded from 1337x.org.txt": 36, "BlueStacks App Player tivated Offline Rooted + MOD v 27.3.2.exe": 8742242}
创建时间: 2019-01-18 00:02:28 大小:8.56 MB 文件数量:5 热度:5 最近下载:2022-11-12 12:55:51
    {"Readme.url": 892, "www.FENOPY.se.jpg": 118728, "Torrent downloaded from AhaShare.com.txt": 40, "Euro Truck Simulator 3 v1.27.1.7s (Inclu ALL DLC).exe": 28648404}
创建时间: 2019-01-18 00:30:54 大小:27.44 MB 文件数量:4 热度:5 最近下载:2024-12-23 04:41:01